sensor_id;sensor_type;location;lat;lon;timestamp;P1;durP1;ratioP1;P2;durP2;ratioP2
8871;SDS011;4472;52.092;9.820;2023-06-14T00:01:14;3.10;;;2.80;;
8871;SDS011;4472;52.092;9.820;2023-06-14T00:04:05;3.37;;;3.07;;
8871;SDS011;4472;52.092;9.820;2023-06-14T00:06:54;4.77;;;3.23;;
8871;SDS011;4472;52.092;9.820;2023-06-14T00:09:43;5.60;;;3.20;;
8871;SDS011;4472;52.092;9.820;2023-06-14T00:12:30;3.30;;;3.00;;
8871;SDS011;4472;52.092;9.820;2023-06-14T00:15:17;3.77;;;3.47;;
8871;SDS011;4472;52.092;9.820;2023-06-14T00:18:04;3.20;;;2.90;;
8871;SDS011;4472;52.092;9.820;2023-06-14T00:20:52;4.13;;;3.03;;
8871;SDS011;4472;52.092;9.820;2023-06-14T00:23:40;3.33;;;3.03;;
8871;SDS011;4472;52.092;9.820;2023-06-14T00:26:28;4.90;;;3.20;;
8871;SDS011;4472;52.092;9.820;2023-06-14T00:29:16;4.13;;;3.13;;
8871;SDS011;4472;52.092;9.820;2023-06-14T00:32:03;3.60;;;3.20;;
8871;SDS011;4472;52.092;9.820;2023-06-14T00:34:51;3.30;;;2.80;;
8871;SDS011;4472;52.092;9.820;2023-06-14T00:37:38;4.80;;;3.40;;
8871;SDS011;4472;52.092;9.820;2023-06-14T00:40:25;5.17;;;2.90;;
8871;SDS011;4472;52.092;9.820;2023-06-14T00:43:14;3.47;;;2.97;;
8871;SDS011;4472;52.092;9.820;2023-06-14T00:46:01;3.87;;;3.03;;
8871;SDS011;4472;52.092;9.820;2023-06-14T00:48:48;4.73;;;3.00;;
8871;SDS011;4472;52.092;9.820;2023-06-14T00:51:35;3.73;;;3.07;;
8871;SDS011;4472;52.092;9.820;2023-06-14T00:54:23;5.17;;;2.93;;
8871;SDS011;4472;52.092;9.820;2023-06-14T00:57:10;7.87;;;3.10;;
8871;SDS011;4472;52.092;9.820;2023-06-14T00:59:59;3.93;;;3.00;;
8871;SDS011;4472;52.092;9.820;2023-06-14T01:02:47;6.00;;;3.07;;
8871;SDS011;4472;52.092;9.820;2023-06-14T01:05:35;4.97;;;2.90;;
8871;SDS011;4472;52.092;9.820;2023-06-14T01:08:24;3.57;;;3.27;;
8871;SDS011;4472;52.092;9.820;2023-06-14T01:11:16;5.17;;;3.17;;
8871;SDS011;4472;52.092;9.820;2023-06-14T01:14:08;4.00;;;3.10;;
8871;SDS011;4472;52.092;9.820;2023-06-14T01:17:00;3.63;;;3.33;;
8871;SDS011;4472;52.092;9.820;2023-06-14T01:19:48;5.43;;;3.07;;
8871;SDS011;4472;52.092;9.820;2023-06-14T01:22:48;4.70;;;2.60;;
8871;SDS011;4472;52.092;9.820;2023-06-14T01:25:38;3.90;;;2.80;;
8871;SDS011;4472;52.092;9.820;2023-06-14T01:28:26;4.83;;;2.97;;
8871;SDS011;4472;52.092;9.820;2023-06-14T01:31:17;3.20;;;2.90;;
8871;SDS011;4472;52.092;9.820;2023-06-14T01:34:07;5.40;;;2.60;;
8871;SDS011;4472;52.092;9.820;2023-06-14T01:36:54;3.43;;;2.50;;
8871;SDS011;4472;52.092;9.820;2023-06-14T01:39:44;3.80;;;2.77;;
8871;SDS011;4472;52.092;9.820;2023-06-14T01:42:32;2.77;;;2.57;;
8871;SDS011;4472;52.092;9.820;2023-06-14T01:45:22;3.40;;;2.83;;
8871;SDS011;4472;52.092;9.820;2023-06-14T01:48:10;4.73;;;3.03;;
8871;SDS011;4472;52.092;9.820;2023-06-14T01:50:58;2.70;;;2.33;;
8871;SDS011;4472;52.092;9.820;2023-06-14T01:53:45;3.30;;;2.57;;
8871;SDS011;4472;52.092;9.820;2023-06-14T01:56:33;3.40;;;3.10;;
8871;SDS011;4472;52.092;9.820;2023-06-14T01:59:20;3.13;;;2.80;;
8871;SDS011;4472;52.092;9.820;2023-06-14T02:02:07;2.90;;;2.70;;
8871;SDS011;4472;52.092;9.820;2023-06-14T02:04:55;3.77;;;2.87;;
8871;SDS011;4472;52.092;9.820;2023-06-14T02:07:42;2.70;;;2.50;;
8871;SDS011;4472;52.092;9.820;2023-06-14T02:10:29;3.13;;;2.83;;
8871;SDS011;4472;52.092;9.820;2023-06-14T02:13:18;3.80;;;2.70;;
8871;SDS011;4472;52.092;9.820;2023-06-14T02:16:05;3.93;;;2.80;;
8871;SDS011;4472;52.092;9.820;2023-06-14T02:18:52;3.57;;;2.87;;
8871;SDS011;4472;52.092;9.820;2023-06-14T02:21:39;4.23;;;3.13;;
8871;SDS011;4472;52.092;9.820;2023-06-14T02:24:27;3.20;;;2.90;;
8871;SDS011;4472;52.092;9.820;2023-06-14T02:27:14;3.07;;;2.60;;
8871;SDS011;4472;52.092;9.820;2023-06-14T02:30:03;3.53;;;2.90;;
8871;SDS011;4472;52.092;9.820;2023-06-14T02:32:51;2.93;;;2.73;;
8871;SDS011;4472;52.092;9.820;2023-06-14T02:35:38;3.43;;;2.90;;
8871;SDS011;4472;52.092;9.820;2023-06-14T02:38:25;4.60;;;2.90;;
8871;SDS011;4472;52.092;9.820;2023-06-14T02:41:13;3.73;;;2.93;;
8871;SDS011;4472;52.092;9.820;2023-06-14T02:44:00;3.23;;;2.93;;
8871;SDS011;4472;52.092;9.820;2023-06-14T02:46:49;3.10;;;2.77;;
8871;SDS011;4472;52.092;9.820;2023-06-14T02:49:36;4.97;;;3.00;;
8871;SDS011;4472;52.092;9.820;2023-06-14T02:52:23;3.90;;;2.67;;
8871;SDS011;4472;52.092;9.820;2023-06-14T02:55:10;2.90;;;2.70;;
8871;SDS011;4472;52.092;9.820;2023-06-14T02:57:57;3.17;;;2.63;;
8871;SDS011;4472;52.092;9.820;2023-06-14T03:00:44;5.07;;;2.80;;
8871;SDS011;4472;52.092;9.820;2023-06-14T03:03:33;3.00;;;2.80;;
8871;SDS011;4472;52.092;9.820;2023-06-14T03:06:20;5.97;;;3.13;;
8871;SDS011;4472;52.092;9.820;2023-06-14T03:09:10;3.07;;;2.70;;
8871;SDS011;4472;52.092;9.820;2023-06-14T03:11:58;3.10;;;2.83;;
8871;SDS011;4472;52.092;9.820;2023-06-14T03:14:45;3.13;;;2.73;;
8871;SDS011;4472;52.092;9.820;2023-06-14T03:17:32;3.37;;;2.57;;
8871;SDS011;4472;52.092;9.820;2023-06-14T03:20:22;4.17;;;2.40;;
8871;SDS011;4472;52.092;9.820;2023-06-14T03:23:09;3.00;;;2.80;;
8871;SDS011;4472;52.092;9.820;2023-06-14T03:25:57;3.23;;;2.90;;
8871;SDS011;4472;52.092;9.820;2023-06-14T03:28:44;3.40;;;3.10;;
8871;SDS011;4472;52.092;9.820;2023-06-14T03:31:31;4.07;;;2.63;;
8871;SDS011;4472;52.092;9.820;2023-06-14T03:34:19;4.57;;;2.63;;
8871;SDS011;4472;52.092;9.820;2023-06-14T03:37:07;3.60;;;3.30;;
8871;SDS011;4472;52.092;9.820;2023-06-14T03:39:54;2.70;;;2.50;;
8871;SDS011;4472;52.092;9.820;2023-06-14T03:42:42;3.13;;;2.83;;
8871;SDS011;4472;52.092;9.820;2023-06-14T03:45:29;2.87;;;2.67;;
8871;SDS011;4472;52.092;9.820;2023-06-14T03:48:16;2.80;;;2.30;;
8871;SDS011;4472;52.092;9.820;2023-06-14T03:51:03;4.40;;;2.40;;
8871;SDS011;4472;52.092;9.820;2023-06-14T03:53:52;3.17;;;2.40;;
8871;SDS011;4472;52.092;9.820;2023-06-14T03:56:40;3.23;;;2.43;;
8871;SDS011;4472;52.092;9.820;2023-06-14T03:59:27;3.90;;;2.20;;
8871;SDS011;4472;52.092;9.820;2023-06-14T04:02:14;2.53;;;2.33;;
8871;SDS011;4472;52.092;9.820;2023-06-14T04:05:01;3.30;;;2.30;;
8871;SDS011;4472;52.092;9.820;2023-06-14T04:07:49;4.10;;;2.10;;
8871;SDS011;4472;52.092;9.820;2023-06-14T04:10:37;4.63;;;2.30;;
8871;SDS011;4472;52.092;9.820;2023-06-14T04:13:24;4.83;;;2.50;;
8871;SDS011;4472;52.092;9.820;2023-06-14T04:16:11;2.70;;;2.50;;
8871;SDS011;4472;52.092;9.820;2023-06-14T04:18:59;4.27;;;2.60;;
8871;SDS011;4472;52.092;9.820;2023-06-14T04:21:46;2.47;;;2.20;;
8871;SDS011;4472;52.092;9.820;2023-06-14T04:24:34;2.97;;;2.53;;
8871;SDS011;4472;52.092;9.820;2023-06-14T04:27:22;3.07;;;2.40;;
8871;SDS011;4472;52.092;9.820;2023-06-14T04:30:11;7.63;;;2.50;;
8871;SDS011;4472;52.092;9.820;2023-06-14T04:32:58;2.87;;;2.53;;
8871;SDS011;4472;52.092;9.820;2023-06-14T04:35:45;2.50;;;2.30;;
8871;SDS011;4472;52.092;9.820;2023-06-14T04:38:34;2.33;;;2.20;;
8871;SDS011;4472;52.092;9.820;2023-06-14T04:41:21;4.10;;;2.20;;
8871;SDS011;4472;52.092;9.820;2023-06-14T04:44:17;3.53;;;2.23;;
8871;SDS011;4472;52.092;9.820;2023-06-14T04:47:05;3.87;;;2.30;;
8871;SDS011;4472;52.092;9.820;2023-06-14T04:49:52;6.40;;;2.40;;
8871;SDS011;4472;52.092;9.820;2023-06-14T04:52:39;2.90;;;2.60;;
8871;SDS011;4472;52.092;9.820;2023-06-14T04:55:27;2.60;;;2.40;;
8871;SDS011;4472;52.092;9.820;2023-06-14T04:58:14;2.80;;;2.53;;
8871;SDS011;4472;52.092;9.820;2023-06-14T05:01:02;4.73;;;2.53;;
8871;SDS011;4472;52.092;9.820;2023-06-14T05:03:50;2.83;;;2.20;;
8871;SDS011;4472;52.092;9.820;2023-06-14T05:06:37;4.23;;;2.57;;
8871;SDS011;4472;52.092;9.820;2023-06-14T05:09:24;3.17;;;2.33;;
8871;SDS011;4472;52.092;9.820;2023-06-14T05:12:12;3.87;;;2.70;;
8871;SDS011;4472;52.092;9.820;2023-06-14T05:14:59;3.53;;;2.60;;
8871;SDS011;4472;52.092;9.820;2023-06-14T05:17:48;3.10;;;2.60;;
8871;SDS011;4472;52.092;9.820;2023-06-14T05:20:40;2.33;;;2.13;;
8871;SDS011;4472;52.092;9.820;2023-06-14T05:26:59;2.70;;;2.50;;
8871;SDS011;4472;52.092;9.820;2023-06-14T05:29:46;2.63;;;2.40;;
8871;SDS011;4472;52.092;9.820;2023-06-14T05:32:34;4.87;;;2.70;;
8871;SDS011;4472;52.092;9.820;2023-06-14T05:35:22;2.40;;;2.20;;
8871;SDS011;4472;52.092;9.820;2023-06-14T05:38:12;2.57;;;2.30;;
8871;SDS011;4472;52.092;9.820;2023-06-14T05:40:59;3.50;;;2.50;;
8871;SDS011;4472;52.092;9.820;2023-06-14T05:43:46;5.40;;;2.80;;
8871;SDS011;4472;52.092;9.820;2023-06-14T05:46:33;2.77;;;2.57;;
8871;SDS011;4472;52.092;9.820;2023-06-14T05:49:20;5.90;;;2.53;;
8871;SDS011;4472;52.092;9.820;2023-06-14T05:52:09;5.10;;;2.50;;
8871;SDS011;4472;52.092;9.820;2023-06-14T05:54:58;3.00;;;2.40;;
8871;SDS011;4472;52.092;9.820;2023-06-14T05:57:45;4.03;;;2.20;;
8871;SDS011;4472;52.092;9.820;2023-06-14T06:00:33;2.07;;;1.97;;
8871;SDS011;4472;52.092;9.820;2023-06-14T06:03:21;2.60;;;2.40;;
8871;SDS011;4472;52.092;9.820;2023-06-14T06:06:08;3.70;;;2.37;;
8871;SDS011;4472;52.092;9.820;2023-06-14T06:08:56;3.40;;;2.47;;
8871;SDS011;4472;52.092;9.820;2023-06-14T06:11:43;3.07;;;2.53;;
8871;SDS011;4472;52.092;9.820;2023-06-14T06:14:30;2.60;;;2.40;;
8871;SDS011;4472;52.092;9.820;2023-06-14T06:17:18;2.40;;;2.20;;
8871;SDS011;4472;52.092;9.820;2023-06-14T06:20:05;2.60;;;2.40;;
8871;SDS011;4472;52.092;9.820;2023-06-14T06:22:53;2.67;;;2.47;;
8871;SDS011;4472;52.092;9.820;2023-06-14T06:25:42;2.60;;;2.40;;
8871;SDS011;4472;52.092;9.820;2023-06-14T06:28:29;2.90;;;2.70;;
8871;SDS011;4472;52.092;9.820;2023-06-14T06:31:16;4.57;;;2.93;;
8871;SDS011;4472;52.092;9.820;2023-06-14T06:34:03;5.30;;;2.90;;
8871;SDS011;4472;52.092;9.820;2023-06-14T06:36:50;2.80;;;2.60;;
8871;SDS011;4472;52.092;9.820;2023-06-14T06:39:37;4.03;;;2.47;;
8871;SDS011;4472;52.092;9.820;2023-06-14T06:42:26;3.20;;;2.80;;
8871;SDS011;4472;52.092;9.820;2023-06-14T06:45:13;4.77;;;2.80;;
8871;SDS011;4472;52.092;9.820;2023-06-14T06:48:00;3.87;;;2.70;;
8871;SDS011;4472;52.092;9.820;2023-06-14T06:50:47;4.10;;;2.50;;
8871;SDS011;4472;52.092;9.820;2023-06-14T06:53:35;3.27;;;2.90;;
8871;SDS011;4472;52.092;9.820;2023-06-14T06:56:41;4.10;;;2.70;;
8871;SDS011;4472;52.092;9.820;2023-06-14T06:59:30;5.90;;;2.70;;
8871;SDS011;4472;52.092;9.820;2023-06-14T07:02:18;2.47;;;2.27;;
8871;SDS011;4472;52.092;9.820;2023-06-14T07:05:05;3.07;;;2.80;;
8871;SDS011;4472;52.092;9.820;2023-06-14T07:07:53;2.70;;;2.50;;
8871;SDS011;4472;52.092;9.820;2023-06-14T07:10:40;2.40;;;2.30;;
8871;SDS011;4472;52.092;9.820;2023-06-14T07:13:27;2.80;;;2.60;;
8871;SDS011;4472;52.092;9.820;2023-06-14T07:16:15;4.27;;;2.70;;
8871;SDS011;4472;52.092;9.820;2023-06-14T07:19:02;3.23;;;2.43;;
8871;SDS011;4472;52.092;9.820;2023-06-14T07:21:50;2.93;;;2.73;;
8871;SDS011;4472;52.092;9.820;2023-06-14T07:24:37;5.20;;;2.30;;
8871;SDS011;4472;52.092;9.820;2023-06-14T07:27:25;2.27;;;2.13;;
8871;SDS011;4472;52.092;9.820;2023-06-14T07:30:13;3.27;;;2.67;;
8871;SDS011;4472;52.092;9.820;2023-06-14T07:33:01;5.33;;;2.40;;
8871;SDS011;4472;52.092;9.820;2023-06-14T07:35:49;3.33;;;2.33;;
8871;SDS011;4472;52.092;9.820;2023-06-14T07:38:37;4.23;;;2.40;;
8871;SDS011;4472;52.092;9.820;2023-06-14T07:41:25;3.50;;;2.10;;
8871;SDS011;4472;52.092;9.820;2023-06-14T07:44:13;2.27;;;1.90;;
8871;SDS011;4472;52.092;9.820;2023-06-14T07:47:01;2.47;;;2.23;;
8871;SDS011;4472;52.092;9.820;2023-06-14T07:49:49;5.23;;;2.33;;
8871;SDS011;4472;52.092;9.820;2023-06-14T07:52:37;3.60;;;2.20;;
8871;SDS011;4472;52.092;9.820;2023-06-14T07:55:24;4.20;;;2.50;;
8871;SDS011;4472;52.092;9.820;2023-06-14T07:58:13;2.63;;;2.43;;
8871;SDS011;4472;52.092;9.820;2023-06-14T08:01:00;2.60;;;2.40;;
8871;SDS011;4472;52.092;9.820;2023-06-14T08:03:51;2.30;;;2.20;;
8871;SDS011;4472;52.092;9.820;2023-06-14T08:06:42;6.43;;;2.50;;
8871;SDS011;4472;52.092;9.820;2023-06-14T08:09:31;2.80;;;2.33;;
8871;SDS011;4472;52.092;9.820;2023-06-14T08:12:18;3.60;;;2.43;;
8871;SDS011;4472;52.092;9.820;2023-06-14T08:15:05;2.70;;;2.50;;
8871;SDS011;4472;52.092;9.820;2023-06-14T08:17:53;3.67;;;2.57;;
8871;SDS011;4472;52.092;9.820;2023-06-14T08:20:40;2.70;;;2.50;;
8871;SDS011;4472;52.092;9.820;2023-06-14T08:23:29;2.93;;;2.50;;
8871;SDS011;4472;52.092;9.820;2023-06-14T08:26:16;3.57;;;2.70;;
8871;SDS011;4472;52.092;9.820;2023-06-14T08:29:03;3.40;;;2.77;;
8871;SDS011;4472;52.092;9.820;2023-06-14T08:31:50;2.87;;;2.67;;
8871;SDS011;4472;52.092;9.820;2023-06-14T08:34:37;5.60;;;2.60;;
8871;SDS011;4472;52.092;9.820;2023-06-14T08:37:24;3.20;;;2.80;;
8871;SDS011;4472;52.092;9.820;2023-06-14T08:40:17;3.07;;;2.87;;
8871;SDS011;4472;52.092;9.820;2023-06-14T08:43:06;3.00;;;2.80;;
8871;SDS011;4472;52.092;9.820;2023-06-14T08:45:56;3.70;;;2.60;;
8871;SDS011;4472;52.092;9.820;2023-06-14T08:48:46;3.30;;;2.57;;
8871;SDS011;4472;52.092;9.820;2023-06-14T08:51:35;2.93;;;2.60;;
8871;SDS011;4472;52.092;9.820;2023-06-14T08:54:24;5.00;;;2.83;;
8871;SDS011;4472;52.092;9.820;2023-06-14T08:57:16;2.90;;;2.60;;
8871;SDS011;4472;52.092;9.820;2023-06-14T09:00:06;2.70;;;2.50;;
8871;SDS011;4472;52.092;9.820;2023-06-14T09:02:57;3.03;;;2.50;;
8871;SDS011;4472;52.092;9.820;2023-06-14T09:05:44;3.07;;;2.70;;
8871;SDS011;4472;52.092;9.820;2023-06-14T09:08:32;3.40;;;2.73;;
8871;SDS011;4472;52.092;9.820;2023-06-14T09:11:19;3.47;;;2.37;;
8871;SDS011;4472;52.092;9.820;2023-06-14T09:14:08;2.60;;;2.40;;
8871;SDS011;4472;52.092;9.820;2023-06-14T09:16:56;3.87;;;2.30;;
8871;SDS011;4472;52.092;9.820;2023-06-14T09:19:43;2.63;;;2.13;;
8871;SDS011;4472;52.092;9.820;2023-06-14T09:22:32;2.37;;;2.17;;
8871;SDS011;4472;52.092;9.820;2023-06-14T09:25:19;2.33;;;2.20;;
8871;SDS011;4472;52.092;9.820;2023-06-14T09:28:07;3.07;;;2.17;;
8871;SDS011;4472;52.092;9.820;2023-06-14T09:30:56;2.77;;;2.17;;
8871;SDS011;4472;52.092;9.820;2023-06-14T09:33:43;2.90;;;2.67;;
8871;SDS011;4472;52.092;9.820;2023-06-14T09:36:33;2.67;;;2.07;;
8871;SDS011;4472;52.092;9.820;2023-06-14T09:39:20;3.73;;;2.30;;
8871;SDS011;4472;52.092;9.820;2023-06-14T09:42:09;2.73;;;2.10;;
8871;SDS011;4472;52.092;9.820;2023-06-14T09:45:04;2.17;;;2.00;;
8871;SDS011;4472;52.092;9.820;2023-06-14T09:47:54;2.03;;;1.90;;
8871;SDS011;4472;52.092;9.820;2023-06-14T09:50:41;2.17;;;1.97;;
8871;SDS011;4472;52.092;9.820;2023-06-14T09:53:30;2.33;;;2.13;;
8871;SDS011;4472;52.092;9.820;2023-06-14T09:56:20;2.10;;;2.00;;
8871;SDS011;4472;52.092;9.820;2023-06-14T09:59:12;2.07;;;1.83;;
8871;SDS011;4472;52.092;9.820;2023-06-14T10:02:02;4.00;;;1.97;;
8871;SDS011;4472;52.092;9.820;2023-06-14T10:04:57;2.30;;;1.90;;
8871;SDS011;4472;52.092;9.820;2023-06-14T10:07:52;3.80;;;1.83;;
8871;SDS011;4472;52.092;9.820;2023-06-14T10:10:42;2.40;;;1.80;;
8871;SDS011;4472;52.092;9.820;2023-06-14T10:13:31;3.37;;;1.90;;
8871;SDS011;4472;52.092;9.820;2023-06-14T10:16:20;3.93;;;1.90;;
8871;SDS011;4472;52.092;9.820;2023-06-14T10:19:13;1.97;;;1.87;;
8871;SDS011;4472;52.092;9.820;2023-06-14T10:22:08;3.93;;;2.10;;
8871;SDS011;4472;52.092;9.820;2023-06-14T10:24:59;3.43;;;2.00;;
8871;SDS011;4472;52.092;9.820;2023-06-14T10:27:46;1.63;;;1.53;;
8871;SDS011;4472;52.092;9.820;2023-06-14T10:30:35;1.73;;;1.70;;
8871;SDS011;4472;52.092;9.820;2023-06-14T10:33:22;3.20;;;1.83;;
8871;SDS011;4472;52.092;9.820;2023-06-14T10:36:23;2.03;;;1.93;;
8871;SDS011;4472;52.092;9.820;2023-06-14T10:39:16;1.97;;;1.87;;
8871;SDS011;4472;52.092;9.820;2023-06-14T10:42:05;3.00;;;1.90;;
8871;SDS011;4472;52.092;9.820;2023-06-14T10:44:52;3.60;;;1.80;;
8871;SDS011;4472;52.092;9.820;2023-06-14T10:47:40;2.27;;;1.80;;
8871;SDS011;4472;52.092;9.820;2023-06-14T10:50:28;2.67;;;2.10;;
8871;SDS011;4472;52.092;9.820;2023-06-14T10:53:22;2.33;;;2.03;;
8871;SDS011;4472;52.092;9.820;2023-06-14T10:56:11;2.00;;;1.90;;
8871;SDS011;4472;52.092;9.820;2023-06-14T10:59:11;2.23;;;2.07;;
8871;SDS011;4472;52.092;9.820;2023-06-14T11:02:01;4.67;;;1.87;;
8871;SDS011;4472;52.092;9.820;2023-06-14T11:05:04;2.90;;;2.30;;
8871;SDS011;4472;52.092;9.820;2023-06-14T11:08:09;3.53;;;2.23;;
8871;SDS011;4472;52.092;9.820;2023-06-14T11:11:15;3.07;;;2.03;;
8871;SDS011;4472;52.092;9.820;2023-06-14T11:14:03;2.47;;;1.90;;
8871;SDS011;4472;52.092;9.820;2023-06-14T11:16:51;3.37;;;1.90;;
8871;SDS011;4472;52.092;9.820;2023-06-14T11:19:38;3.37;;;1.93;;
8871;SDS011;4472;52.092;9.820;2023-06-14T11:22:25;2.17;;;2.00;;
8871;SDS011;4472;52.092;9.820;2023-06-14T11:25:12;2.07;;;1.87;;
8871;SDS011;4472;52.092;9.820;2023-06-14T11:28:01;3.50;;;2.50;;
8871;SDS011;4472;52.092;9.820;2023-06-14T11:30:48;2.67;;;2.10;;
8871;SDS011;4472;52.092;9.820;2023-06-14T11:33:35;2.37;;;1.93;;
8871;SDS011;4472;52.092;9.820;2023-06-14T11:36:23;2.40;;;2.30;;
8871;SDS011;4472;52.092;9.820;2023-06-14T11:39:12;2.73;;;2.53;;
8871;SDS011;4472;52.092;9.820;2023-06-14T11:41:59;3.20;;;2.40;;
8871;SDS011;4472;52.092;9.820;2023-06-14T11:44:50;3.17;;;2.43;;
8871;SDS011;4472;52.092;9.820;2023-06-14T11:47:38;11.70;;;2.47;;
8871;SDS011;4472;52.092;9.820;2023-06-14T11:50:26;2.73;;;2.33;;
8871;SDS011;4472;52.092;9.820;2023-06-14T11:53:13;3.77;;;2.37;;
8871;SDS011;4472;52.092;9.820;2023-06-14T11:56:02;2.77;;;2.33;;
8871;SDS011;4472;52.092;9.820;2023-06-14T11:58:50;2.20;;;2.10;;
8871;SDS011;4472;52.092;9.820;2023-06-14T12:01:52;3.70;;;2.73;;
8871;SDS011;4472;52.092;9.820;2023-06-14T12:07:10;4.43;;;2.80;;
8871;SDS011;4472;52.092;9.820;2023-06-14T12:10:03;2.90;;;2.70;;
8871;SDS011;4472;52.092;9.820;2023-06-14T12:12:56;3.60;;;2.57;;
8871;SDS011;4472;52.092;9.820;2023-06-14T12:15:44;4.17;;;2.90;;
8871;SDS011;4472;52.092;9.820;2023-06-14T12:18:33;3.83;;;3.30;;
8871;SDS011;4472;52.092;9.820;2023-06-14T12:21:22;3.80;;;2.70;;
8871;SDS011;4472;52.092;9.820;2023-06-14T12:24:11;2.57;;;2.20;;
8871;SDS011;4472;52.092;9.820;2023-06-14T12:26:59;3.80;;;3.10;;
8871;SDS011;4472;52.092;9.820;2023-06-14T12:29:58;4.60;;;3.27;;
8871;SDS011;4472;52.092;9.820;2023-06-14T12:32:45;3.30;;;2.87;;
8871;SDS011;4472;52.092;9.820;2023-06-14T12:35:48;3.87;;;3.10;;
8871;SDS011;4472;52.092;9.820;2023-06-14T12:38:36;4.70;;;3.30;;
8871;SDS011;4472;52.092;9.820;2023-06-14T12:41:23;7.70;;;3.00;;
8871;SDS011;4472;52.092;9.820;2023-06-14T12:44:12;5.43;;;2.80;;
8871;SDS011;4472;52.092;9.820;2023-06-14T12:46:59;5.27;;;3.20;;
8871;SDS011;4472;52.092;9.820;2023-06-14T12:49:46;6.70;;;3.03;;
8871;SDS011;4472;52.092;9.820;2023-06-14T12:52:35;4.03;;;3.27;;
8871;SDS011;4472;52.092;9.820;2023-06-14T12:55:22;3.30;;;2.80;;
8871;SDS011;4472;52.092;9.820;2023-06-14T12:58:09;4.23;;;3.07;;
8871;SDS011;4472;52.092;9.820;2023-06-14T13:00:57;4.23;;;3.07;;
8871;SDS011;4472;52.092;9.820;2023-06-14T13:03:45;3.67;;;2.90;;
8871;SDS011;4472;52.092;9.820;2023-06-14T13:06:32;4.77;;;2.80;;
8871;SDS011;4472;52.092;9.820;2023-06-14T13:09:20;5.03;;;3.27;;
8871;SDS011;4472;52.092;9.820;2023-06-14T13:12:08;7.87;;;3.23;;
8871;SDS011;4472;52.092;9.820;2023-06-14T13:14:57;5.47;;;3.50;;
8871;SDS011;4472;52.092;9.820;2023-06-14T13:17:44;5.23;;;3.13;;
8871;SDS011;4472;52.092;9.820;2023-06-14T13:20:34;6.27;;;3.60;;
8871;SDS011;4472;52.092;9.820;2023-06-14T13:23:21;3.87;;;3.23;;
8871;SDS011;4472;52.092;9.820;2023-06-14T13:26:09;3.07;;;2.77;;
8871;SDS011;4472;52.092;9.820;2023-06-14T13:28:57;5.23;;;3.30;;
8871;SDS011;4472;52.092;9.820;2023-06-14T13:31:44;6.37;;;3.47;;
8871;SDS011;4472;52.092;9.820;2023-06-14T13:34:31;4.97;;;3.30;;
8871;SDS011;4472;52.092;9.820;2023-06-14T13:37:19;4.33;;;2.93;;
8871;SDS011;4472;52.092;9.820;2023-06-14T13:40:06;11.07;;;3.13;;
8871;SDS011;4472;52.092;9.820;2023-06-14T13:42:55;5.53;;;3.43;;
8871;SDS011;4472;52.092;9.820;2023-06-14T13:45:42;3.70;;;3.10;;
8871;SDS011;4472;52.092;9.820;2023-06-14T13:48:29;5.07;;;3.23;;
8871;SDS011;4472;52.092;9.820;2023-06-14T13:51:17;6.10;;;3.20;;
8871;SDS011;4472;52.092;9.820;2023-06-14T13:54:06;3.93;;;3.40;;
8871;SDS011;4472;52.092;9.820;2023-06-14T13:56:53;4.13;;;3.33;;
8871;SDS011;4472;52.092;9.820;2023-06-14T13:59:42;5.40;;;3.17;;
8871;SDS011;4472;52.092;9.820;2023-06-14T14:02:30;3.03;;;2.80;;
8871;SDS011;4472;52.092;9.820;2023-06-14T14:05:17;3.57;;;2.93;;
8871;SDS011;4472;52.092;9.820;2023-06-14T14:08:05;3.37;;;3.10;;
8871;SDS011;4472;52.092;9.820;2023-06-14T14:10:53;4.10;;;3.50;;
8871;SDS011;4472;52.092;9.820;2023-06-14T14:13:41;4.43;;;3.20;;
8871;SDS011;4472;52.092;9.820;2023-06-14T14:16:30;6.57;;;3.47;;
8871;SDS011;4472;52.092;9.820;2023-06-14T14:19:17;7.20;;;3.27;;
8871;SDS011;4472;52.092;9.820;2023-06-14T14:22:05;5.03;;;3.27;;
8871;SDS011;4472;52.092;9.820;2023-06-14T14:24:52;4.00;;;3.30;;
8871;SDS011;4472;52.092;9.820;2023-06-14T14:27:39;3.60;;;3.30;;
8871;SDS011;4472;52.092;9.820;2023-06-14T14:30:26;7.60;;;3.20;;
8871;SDS011;4472;52.092;9.820;2023-06-14T14:33:15;6.13;;;3.03;;
8871;SDS011;4472;52.092;9.820;2023-06-14T14:36:03;5.93;;;3.33;;
8871;SDS011;4472;52.092;9.820;2023-06-14T14:38:52;4.27;;;3.43;;
8871;SDS011;4472;52.092;9.820;2023-06-14T14:41:39;5.87;;;3.37;;
8871;SDS011;4472;52.092;9.820;2023-06-14T14:44:26;6.17;;;3.30;;
8871;SDS011;4472;52.092;9.820;2023-06-14T14:47:13;4.77;;;3.10;;
8871;SDS011;4472;52.092;9.820;2023-06-14T14:50:02;7.27;;;3.33;;
8871;SDS011;4472;52.092;9.820;2023-06-14T14:52:49;5.70;;;3.70;;
8871;SDS011;4472;52.092;9.820;2023-06-14T14:55:36;10.23;;;3.60;;
8871;SDS011;4472;52.092;9.820;2023-06-14T14:58:25;3.90;;;3.10;;
8871;SDS011;4472;52.092;9.820;2023-06-14T15:01:12;7.93;;;4.00;;
8871;SDS011;4472;52.092;9.820;2023-06-14T15:03:59;3.70;;;3.27;;
8871;SDS011;4472;52.092;9.820;2023-06-14T15:06:48;3.40;;;3.10;;
8871;SDS011;4472;52.092;9.820;2023-06-14T15:09:35;5.00;;;3.37;;
8871;SDS011;4472;52.092;9.820;2023-06-14T15:12:22;5.17;;;3.37;;
8871;SDS011;4472;52.092;9.820;2023-06-14T15:15:09;4.13;;;3.67;;
8871;SDS011;4472;52.092;9.820;2023-06-14T15:17:57;5.33;;;3.37;;
8871;SDS011;4472;52.092;9.820;2023-06-14T15:20:45;4.10;;;3.40;;
8871;SDS011;4472;52.092;9.820;2023-06-14T15:23:34;9.23;;;3.40;;
8871;SDS011;4472;52.092;9.820;2023-06-14T15:26:21;5.63;;;3.40;;
8871;SDS011;4472;52.092;9.820;2023-06-14T15:29:09;4.57;;;2.93;;
8871;SDS011;4472;52.092;9.820;2023-06-14T15:31:56;3.87;;;3.40;;
8871;SDS011;4472;52.092;9.820;2023-06-14T15:34:44;5.50;;;3.37;;
8871;SDS011;4472;52.092;9.820;2023-06-14T15:37:31;6.47;;;3.40;;
8871;SDS011;4472;52.092;9.820;2023-06-14T15:40:19;7.80;;;3.43;;
8871;SDS011;4472;52.092;9.820;2023-06-14T15:43:07;4.93;;;3.03;;
8871;SDS011;4472;52.092;9.820;2023-06-14T15:45:55;5.33;;;3.13;;
8871;SDS011;4472;52.092;9.820;2023-06-14T15:48:42;4.50;;;3.07;;
8871;SDS011;4472;52.092;9.820;2023-06-14T15:51:29;5.70;;;3.40;;
8871;SDS011;4472;52.092;9.820;2023-06-14T15:54:16;6.57;;;3.23;;
8871;SDS011;4472;52.092;9.820;2023-06-14T15:57:05;5.20;;;3.40;;
8871;SDS011;4472;52.092;9.820;2023-06-14T15:59:53;5.33;;;3.13;;
8871;SDS011;4472;52.092;9.820;2023-06-14T16:02:40;8.07;;;3.10;;
8871;SDS011;4472;52.092;9.820;2023-06-14T16:05:27;4.93;;;3.80;;
8871;SDS011;4472;52.092;9.820;2023-06-14T16:08:14;9.27;;;3.10;;
8871;SDS011;4472;52.092;9.820;2023-06-14T16:11:01;4.77;;;3.30;;
8871;SDS011;4472;52.092;9.820;2023-06-14T16:13:50;4.73;;;3.40;;
8871;SDS011;4472;52.092;9.820;2023-06-14T16:16:37;3.97;;;3.00;;
8871;SDS011;4472;52.092;9.820;2023-06-14T16:19:24;4.27;;;3.37;;
8871;SDS011;4472;52.092;9.820;2023-06-14T16:22:11;4.77;;;3.27;;
8871;SDS011;4472;52.092;9.820;2023-06-14T16:24:58;4.57;;;3.17;;
8871;SDS011;4472;52.092;9.820;2023-06-14T16:27:45;4.13;;;3.10;;
8871;SDS011;4472;52.092;9.820;2023-06-14T16:30:34;5.53;;;3.40;;
8871;SDS011;4472;52.092;9.820;2023-06-14T16:33:21;5.13;;;3.40;;
8871;SDS011;4472;52.092;9.820;2023-06-14T16:36:08;3.50;;;3.10;;
8871;SDS011;4472;52.092;9.820;2023-06-14T16:38:55;3.67;;;3.30;;
8871;SDS011;4472;52.092;9.820;2023-06-14T16:41:43;6.07;;;3.37;;
8871;SDS011;4472;52.092;9.820;2023-06-14T16:44:30;6.80;;;3.00;;
8871;SDS011;4472;52.092;9.820;2023-06-14T16:47:18;4.70;;;3.10;;
8871;SDS011;4472;52.092;9.820;2023-06-14T16:50:06;7.47;;;3.50;;
8871;SDS011;4472;52.092;9.820;2023-06-14T16:52:55;7.97;;;3.57;;
8871;SDS011;4472;52.092;9.820;2023-06-14T16:55:42;8.43;;;3.90;;
8871;SDS011;4472;52.092;9.820;2023-06-14T16:58:29;6.87;;;3.60;;
8871;SDS011;4472;52.092;9.820;2023-06-14T17:01:16;6.97;;;3.37;;
8871;SDS011;4472;52.092;9.820;2023-06-14T17:04:05;6.53;;;3.60;;
8871;SDS011;4472;52.092;9.820;2023-06-14T17:06:52;4.07;;;3.47;;
8871;SDS011;4472;52.092;9.820;2023-06-14T17:09:39;7.07;;;3.33;;
8871;SDS011;4472;52.092;9.820;2023-06-14T17:12:27;5.60;;;3.63;;
8871;SDS011;4472;52.092;9.820;2023-06-14T17:15:15;8.10;;;3.93;;
8871;SDS011;4472;52.092;9.820;2023-06-14T17:18:02;5.97;;;3.63;;
8871;SDS011;4472;52.092;9.820;2023-06-14T17:20:50;6.40;;;3.50;;
8871;SDS011;4472;52.092;9.820;2023-06-14T17:23:37;3.67;;;3.37;;
8871;SDS011;4472;52.092;9.820;2023-06-14T17:26:25;4.37;;;3.47;;
8871;SDS011;4472;52.092;9.820;2023-06-14T17:29:12;4.90;;;3.43;;
8871;SDS011;4472;52.092;9.820;2023-06-14T17:31:59;4.97;;;3.47;;